Latest Coastal Weather Observations for Smithton

IDT60701

Issued at 12:42 pm EDT Wednesday 18 January 2017 (issued every 10 minutes, with the page automatically refreshed every 10 minutes)

About coastal observations | Map of coastal stations | Coastal observations for TAS | Marine services | Other Formats
Station Details ID: 091292 Name: SMITHTON AERODROME Lat: -40.83 Lon: 145.08 Height: 7.5 m
Data from the previous 72 hours. | See also: Recent months at Smithton
Date/Time
EDT
Temp
°C
Wind Pressure Rain since
9am
mm
Weather Cloud Vis
km
Sea
Height
m
Swell
Dir  Spd
kts
Gust
kts
hPa Trend Height
m
Period
s
Dir
18/12:30pm 17.8 SSW 23 31 1013.1 - 0.2 - - - - - - -
18/12:00pm 17.6 SSW 23 33 1012.6 - 0.2 - - - - - - -
18/11:34am 16.4 SW 21 31 1012.5 - 0.2 - - - - - - -
18/11:30am 16.4 SW 21 28 1012.5 - 0.2 - - - - - - -
18/11:14am 15.8 SW 21 36 1012.2 - 0.2 - - - - - - -
18/11:00am 17.2 SW 21 29 1012.1 - 0.2 - - - - - - -
18/10:30am 17.4 SW 20 28 1011.7 - 0.0 - - - - - - -
18/10:00am 16.4 SW 19 26 1011.4 - 0.0 - - - - - - -
18/09:40am 15.7 SSW 21 31 1010.8 - 0.0 - - - - - - -
18/09:30am 15.6 SW 20 27 1011.0 - 0.0 - - - - - - -
18/09:00am 15.4 SW 19 29 1010.7 - 1.8 - - - - - - -
18/08:59am 15.3 SW 19 29 1010.7 - 1.8 - - - - - - -
18/08:30am 14.5 SW 19 28 1010.4 - 1.8 - - - - - - -
18/08:00am 14.1 SW 18 29 1010.1 - 1.8 - - - - - - -
18/07:58am 14.0 SW 18 29 1010.1 - 1.8 - - - - - - -
18/07:30am 13.3 SW 17 22 1009.8 - 1.8 - - - - - - -
18/07:00am 12.8 SW 14 19 1009.5 - 1.8 - - - - - - -
18/06:30am 12.2 SW 13 17 1008.9 - 1.8 - - - - - - -
18/06:00am 12.7 WSW 14 19 1008.1 - 1.8 - - - - - - -
18/05:30am 12.6 WSW 12 16 1007.5 - 1.8 - - - - - - -
18/05:00am 12.5 WSW 11 16 1007.2 - 1.8 - - - - - - -
18/04:30am 12.4 WSW 10 13 1007.1 - 1.8 - - - - - - -
18/04:00am 12.1 WSW 10 13 1007.3 - 1.8 - - - - - - -
18/03:30am 11.9 WSW 9 11 1007.3 - 1.8 - - - - - - -
18/03:00am 12.3 WSW 9 11 1007.1 - 1.8 - - - - - - -
18/02:30am 13.0 SW 12 14 1007.3 - 1.8 - - - - - - -
18/02:00am 13.5 SW 11 15 1007.1 - 1.8 - - - - - - -
18/01:30am 14.0 SW 12 16 1007.2 - 1.8 - - - - - - -
18/01:00am 14.5 WSW 14 24 1007.3 - 1.8 - - - - - - -
18/12:30am 14.9 WSW 15 20 1006.9 - 1.8 - - - - - - -
18/12:00am 15.2 WSW 11 14 1007.5 - 1.8 - - - - - - -
 
Date/Time
EDT
Temp
°C
Wind Pressure Rain since
9am
mm
Weather Cloud Vis
km
Sea
Height
m
Swell
Dir  Spd
kts
Gust
kts
hPa Trend Height
m
Period
s
Dir
17/11:30pm 15.2 WSW 11 14 1006.5 - 1.8 - - - - - - -
17/11:00pm 15.4 W 11 14 1007.1 - 1.8 - - - - - - -
17/10:30pm 15.4 WSW 10 13 1007.2 - 1.8 - - - - - - -
17/10:00pm 15.4 WSW 9 12 1007.1 - 1.6 - - - - - - -
17/09:30pm 15.6 W 8 11 1006.9 - 1.4 - - - - - - -
17/09:00pm 15.7 W 8 10 1006.6 - 0.8 - - - - - - -
17/08:30pm 16.0 WSW 6 9 1006.4 - 0.8 - - - - - - -
17/08:00pm 16.3 WSW 10 13 1007.1 - 0.2 - - - - - - -
17/07:30pm 16.8 WSW 12 17 1006.0 - 0.0 - - - - - - -
17/07:00pm 17.1 WSW 12 15 1005.6 - 0.0 - - - - - - -
17/06:30pm 17.7 WSW 9 11 1005.4 - 0.0 - - - - - - -
17/06:00pm 17.9 WNW 6 8 1004.8 - 0.0 - - - - - - -
17/05:30pm 18.5 WNW 9 11 1005.1 - 0.0 - - - - - - -
17/05:00pm 19.8 W 9 13 1005.6 - 0.0 - - - - - - -
17/04:30pm 20.1 WNW 9 12 1005.6 - 0.0 - - - - - - -
17/04:00pm 20.8 WSW 10 14 1005.4 - 0.0 - - - - - - -
17/03:30pm 21.8 W 10 13 1005.1 - 0.0 - - - - - - -
17/03:00pm 22.9 W 11 13 1005.5 - 0.0 - - - - - - -
17/02:30pm 23.8 W 13 18 1005.5 - 0.0 - - - - - - -
17/02:00pm 23.7 WNW 11 15 1005.9 - 0.0 - - - - - - -
17/01:30pm 22.9 WNW 10 14 1005.9 - 0.0 - - - - - - -
17/01:00pm 23.4 NW 10 12 1006.5 - 0.0 - - - - - - -
17/12:30pm 21.0 NNE 9 11 1006.4 - 0.0 - - - - - - -
17/12:00pm 20.5 NNE 8 11 1006.8 - 0.0 - - - - - - -
17/11:30am 19.6 NNE 7 9 1006.5 - 0.0 - - - - - - -
17/11:00am 19.5 NNE 6 8 1006.8 - 0.0 - - - - - - -
17/10:30am 19.5 NNE 6 8 1007.2 - 0.0 - - - - - - -
17/10:00am 19.0 N 6 9 1007.6 - 0.0 - - - - - - -
17/09:30am 17.6 SW 2 5 1007.3 - 0.0 - - - - - - -
17/09:00am 16.3 CALM 0 3 1007.3 - 0.0 - - - - - - -
17/08:30am 15.0 CALM 0 0 1007.6 - 0.0 - - - - - - -
17/08:00am 13.6 SW 3 5 1007.3 - 0.0 - - - - - - -
17/07:30am 12.9 CALM 0 0 1007.0 - 0.0 - - - - - - -
17/07:00am 12.4 S 1 3 1007.0 - 0.0 - - - - - - -
17/06:30am 12.1 S 4 4 1007.2 - 0.0 - - - - - - -
17/06:00am 11.9 S 4 6 1007.6 - 0.0 - - - - - - -
17/05:30am 11.6 S 3 4 1007.1 - 0.0 - - - - - - -
17/05:00am 11.2 S 5 6 1007.1 - 0.0 - - - - - - -
17/04:30am 11.2 S 5 6 1007.0 - 0.0 - - - - - - -
17/04:00am 11.2 ENE 4 6 1007.2 - 0.0 - - - - - - -
17/03:30am 10.0 ESE 2 5 1007.1 - 0.0 - - - - - - -
17/03:00am 10.4 CALM 0 0 1007.5 - 0.0 - - - - - - -
17/02:30am 10.5 CALM 0 0 1007.8 - 0.0 - - - - - - -
17/02:00am 11.5 CALM 0 0 1008.1 - 0.0 - - - - - - -
17/01:30am 11.9 CALM 0 0 1008.4 - 0.0 - - - - - - -
17/01:00am 11.9 CALM 0 0 1008.7 - 0.0 - - - - - - -
17/12:30am 13.3 SSE 4 5 1008.6 - 0.0 - - - - - - -
17/12:00am 12.9 S 5 7 1009.0 - 0.0 - - - - - - -
 
Date/Time
EDT
Temp
°C
Wind Pressure Rain since
9am
mm
Weather Cloud Vis
km
Sea
Height
m
Swell
Dir  Spd
kts
Gust
kts
hPa Trend Height
m
Period
s
Dir
16/11:30pm 13.1 WSW 5 6 1009.5 - 0.0 - - - - - - -
16/11:00pm 14.1 CALM 0 0 1009.9 - 0.0 - - - - - - -
16/10:30pm 14.6 CALM 0 0 1010.0 - 0.0 - - - - - - -
16/10:00pm 14.6 WNW 3 5 1010.3 - 0.0 - - - - - - -
16/09:30pm 14.9 WNW 5 6 1010.6 - 0.0 - - - - - - -
16/09:00pm 15.4 NW 6 7 1010.4 - 0.0 - - - - - - -
16/08:30pm 16.0 NW 5 7 1010.0 - 0.0 - - - - - - -
16/08:00pm 16.9 NW 6 8 1010.2 - 0.0 - - - - - - -
16/07:30pm 18.2 NW 8 10 1010.1 - 0.0 - - - - - - -
16/07:00pm 18.9 NW 10 13 1010.3 - 0.0 - - - - - - -
16/06:30pm 19.3 NW 11 13 1010.3 - 0.0 - - - - - - -
16/06:00pm 19.6 NW 12 14 1010.6 - 0.0 - - - - - - -
16/05:30pm 19.6 NW 12 15 1010.7 - 0.0 - - - - - - -
16/05:00pm 19.7 NNW 12 15 1011.0 - 0.0 - - - - - - -
16/04:30pm 20.1 NNW 13 19 1011.2 - 0.0 - - - - - - -
16/04:00pm 20.7 WNW 13 19 1011.7 - 0.0 - - - - - - -
16/03:30pm 20.7 WNW 11 15 1011.9 - 0.0 - - - - - - -
16/03:00pm 20.5 WNW 11 17 1012.2 - 0.0 - - - - - - -
16/02:30pm 20.0 W 10 16 1012.4 - 0.0 - - - - - - -
16/02:00pm 19.0 W 9 16 1012.7 - 0.0 - - - - - - -
16/01:30pm 19.5 WNW 11 18 1013.0 - 0.0 - - - - - - -
16/01:00pm 18.8 W 13 19 1013.5 - 0.0 - - - - - - -
16/12:30pm 17.7 W 11 15 1013.8 - 0.0 - - - - - - -
16/12:00pm 17.4 W 12 17 1014.1 - 0.0 - - - - - - -
16/11:30am 17.1 W 11 15 1014.2 - 0.0 - - - - - - -
16/11:00am 16.4 WNW 9 13 1014.5 - 0.0 - - - - - - -
16/10:30am 16.0 W 10 13 1014.7 - 0.0 - - - - - - -
16/10:00am 16.0 W 10 13 1014.7 - 0.0 - - - - - - -
16/09:30am 15.8 W 9 12 1015.0 - 0.0 - - - - - - -
16/09:00am 15.3 W 7 10 1015.0 - 0.0 - - - - - - -
16/08:30am 14.5 W 10 14 1015.1 - 0.0 - - - - - - -
16/08:00am 14.0 W 4 5 1014.8 - 0.0 - - - - - - -
16/07:30am 13.4 WNW 5 7 1014.7 - 0.0 - - - - - - -
16/07:00am 12.9 SW 4 4 1014.5 - 0.0 - - - - - - -
16/06:30am 12.7 SW 3 4 1014.3 - 0.0 - - - - - - -
16/06:00am 12.6 SW 1 4 1014.1 - 0.0 - - - - - - -
16/05:30am 12.5 SW 3 4 1014.1 - 0.0 - - - - - - -
16/05:00am 12.4 SW 4 5 1013.8 - 0.0 - - - - - - -
16/04:30am 12.5 SW 4 5 1013.7 - 0.0 - - - - - - -
16/04:00am 12.7 SW 7 9 1013.8 - 0.0 - - - - - - -
16/03:30am 12.7 W 8 11 1013.8 - 0.0 - - - - - - -
16/03:00am 12.5 W 6 7 1013.9 - 0.0 - - - - - - -
16/02:30am 12.6 W 5 6 1014.3 - 0.0 - - - - - - -
16/02:00am 11.9 SW 5 5 1014.4 - 0.0 - - - - - - -
16/01:30am 12.7 W 6 7 1014.9 - 0.0 - - - - - - -
16/01:00am 12.8 W 7 8 1015.3 - 0.0 - - - - - - -
16/12:30am 13.3 W 10 13 1015.6 - 0.0 - - - - - - -
16/12:00am 13.3 W 7 8 1015.7 - 0.0 - - - - - - -
 
Date/Time
EDT
Temp
°C
Wind Pressure Rain since
9am
mm
Weather Cloud Vis
km
Sea
Height
m
Swell
Dir  Spd
kts
Gust
kts
hPa Trend Height
m
Period
s
Dir
15/11:30pm 13.5 WSW 6 7 1015.9 - 0.0 - - - - - - -
15/11:00pm 13.5 W 6 7 1016.0 - 0.0 - - - - - - -
15/10:30pm 13.7 W 5 7 1016.2 - 0.0 - - - - - - -
15/10:00pm 13.8 W 6 7 1016.2 - 0.0 - - - - - - -
15/09:30pm 14.1 WSW 9 12 1016.2 - 0.0 - - - - - - -
15/09:00pm 14.2 W 10 13 1016.1 - 0.0 - - - - - - -
15/08:30pm 14.6 WSW 10 12 1016.0 - 0.0 - - - - - - -
15/08:00pm 14.9 WSW 11 16 1015.9 - 0.0 - - - - - - -
15/07:30pm 15.3 WSW 12 16 1015.6 - 0.0 - - - - - - -
15/07:00pm 15.7 WSW 12 16 1015.5 - 0.0 - - - - - - -
15/06:30pm 16.2 WSW 15 21 1015.6 - 0.0 - - - - - - -
15/06:00pm 16.0 WSW 16 21 1015.8 - 0.0 - - - - - - -
15/05:30pm 16.3 WSW 16 20 1015.9 - 0.0 - - - - - - -
15/05:00pm 16.5 SW 15 19 1016.3 - 0.0 - - - - - - -
15/04:30pm 15.8 WSW 14 18 1016.6 - 0.0 - - - - - - -
15/04:00pm 16.2 SW 14 17 1016.7 - 0.0 - - - - - - -
15/03:30pm 16.8 SW 16 22 1016.9 - 0.0 - - - - - - -
15/03:00pm 17.3 WSW 16 21 1016.8 - 0.0 - - - - - - -
15/02:30pm 16.4 WSW 16 20 1016.9 - 0.0 - - - - - - -
15/02:00pm 16.2 SW 13 17 1017.0 - 0.0 - - - - - - -
15/01:30pm 15.5 WSW 14 17 1017.2 - 0.0 - - - - - - -
15/01:00pm 15.5 WSW 14 19 1017.2 - 0.0 - - - - - - -

Other Formats:

Comma delimited format used in spreadsheet applications
http://www.bom.gov.au/fwo/IDT60701/IDT60701.94953.axf

JavaScript Object Notation format (JSON) in row-major order
http://www.bom.gov.au/fwo/IDT60701/IDT60701.94953.json